Terminal Aerodrome Forecast
Issued by NWS Nashville, TN

Home | Current Version | Previous Version | Text Only | Print | Product List | Glossary On
Versions: 1 2 3 4 5 6 7 8 9 10 11 12 13 14 15 16 17
363
FTUS44 KOHX 141120
TAFCSV
TAF
KCSV 141120Z 1412/1512 10006KT P6SM OVC060
     FM141800 14007KT 6SM -SN BR OVC040
     FM142100 15008KT 3SM -SN BR OVC015
     FM150300 17007KT 3SM -FZRASNPL BR OVC010
     FM151000 17007KT 4SM -RA OVC007=

USA.gov is the U.S. government's official web portal to all federal, state and local government web resources and services.